»·PEaware :: N172SP L88-KSBP

N172SP :: L88-KSBP

FLIGHT INFORMATION

Flight Status: Arrived
Operator: Privately registered:
United States
More flights under this callsign
Pilot: Pierre C. (6327)
Aircraft: CESSNA 172 SKYHAWK
(C172)
More flights by this aircraft type
Origin: L88 New Cuyama
United States
Destination: KSBP San Luis Co Regl
United States
More flights between these airports :: More routes between these airports
Route: +
File this flight plan on PilotEdge
Remarks:
Altitude:
(Current/Filed)
4,500ft
Speed:
(Current/Filed)
100kts
Departed: 24-Sep-18 09:59 AM
Arrived: 24-Sep-18 11:16 AM
Distance/Time
Traveled:
50nm/1:17
Distance/Time
To Go:
Arrived

Flight Plot

Page will automatically refresh every two minutes.


Map Options




Map Legend


Flown Route
Filed Route
Departure Airport
Arrival Airport
Navaid (VOR, NDB)
Fix

Horizontal Profiles

Position Reports

Time Latitude Longitude Heading Altitude Ground
Speed
24-Sep-18 09:52 34.942856 -119.690285 204 2155ft 0kts
24-Sep-18 09:53 34.942856 -119.690285 204 2155ft 0kts
24-Sep-18 09:54 34.942856 -119.690285 204 2155ft 0kts
24-Sep-18 09:55 34.942856 -119.690285 204 2155ft 0kts
24-Sep-18 09:56 34.942856 -119.690285 204 2155ft 0kts
24-Sep-18 09:57 34.942878 -119.690831 292 2153ft 9kts
24-Sep-18 09:58 34.941080 -119.688265 117 2162ft 14kts
24-Sep-18 09:59 34.939277 -119.683945 117 2180ft 14kts
24-Sep-18 10:00 34.937855 -119.680546 119 2195ft 9kts
24-Sep-18 10:01 34.938659 -119.682410 292 2188ft 55kts
24-Sep-18 10:02 34.949028 -119.706425 292 2985ft 84kts
24-Sep-18 10:03 34.959772 -119.733307 295 3858ft 89kts
24-Sep-18 10:04 34.970736 -119.760271 296 4583ft 92kts
24-Sep-18 10:05 34.983078 -119.790057 298 4591ft 102kts
24-Sep-18 10:06 34.996847 -119.820842 298 4591ft 104kts
24-Sep-18 10:07 35.010792 -119.851970 298 4591ft 105kts
24-Sep-18 10:08 35.024910 -119.883519 298 4591ft 106kts
24-Sep-18 10:09 35.039102 -119.915178 298 4591ft 106kts
24-Sep-18 10:10 35.053257 -119.946772 298 4591ft 106kts
24-Sep-18 10:11 35.067063 -119.978664 297 4591ft 106kts
24-Sep-18 10:12 35.080547 -120.010682 296 4591ft 106kts
24-Sep-18 10:13 35.093815 -120.042863 296 4591ft 106kts
24-Sep-18 10:14 35.106751 -120.074229 296 4591ft 106kts
24-Sep-18 10:15 35.120038 -120.106438 296 4591ft 106kts
24-Sep-18 10:16 35.132756 -120.138977 285 4591ft 106kts
24-Sep-18 10:17 35.140003 -120.173889 284 4588ft 106kts
24-Sep-18 10:18 35.147402 -120.209202 284 4472ft 103kts
24-Sep-18 10:19 35.153898 -120.240342 282 4166ft 90kts
24-Sep-18 10:20 35.157965 -120.270253 279 3743ft 87kts
24-Sep-18 10:21 35.161673 -120.298305 279 3240ft 81kts
24-Sep-18 10:22 35.165597 -120.328045 279 2804ft 86kts
24-Sep-18 10:23 35.169450 -120.357453 279 2677ft 92kts
24-Sep-18 10:24 35.173517 -120.388243 279 2377ft 92kts
24-Sep-18 10:25 35.177399 -120.417790 279 2287ft 83kts
24-Sep-18 10:26 35.180986 -120.445240 279 2288ft 80kts
24-Sep-18 10:27 35.183963 -120.472352 272 2288ft 80kts
24-Sep-18 10:28 35.183857 -120.499370 269 2284ft 74kts
24-Sep-18 10:29 35.183557 -120.523177 269 2031ft 71kts
24-Sep-18 10:30 35.185060 -120.549400 290 1631ft 82kts
24-Sep-18 10:38 34.942853 -119.690285 204 2155ft 0kts
24-Sep-18 10:39 34.942853 -119.690285 204 2155ft 0kts
24-Sep-18 10:40 34.942853 -119.690285 204 2155ft 0kts
24-Sep-18 10:41 34.942876 -119.690795 283 2153ft 10kts
24-Sep-18 10:42 34.940924 -119.687956 127 2164ft 19kts
24-Sep-18 10:43 34.938251 -119.681480 114 2191ft 17kts
24-Sep-18 10:44 34.937810 -119.680342 294 2195ft 0kts
24-Sep-18 10:45 34.943801 -119.695081 293 2532ft 71kts
24-Sep-18 10:46 34.953117 -119.722086 289 3188ft 81kts
24-Sep-18 10:47 34.960656 -119.744348 294 3680ft 94kts
24-Sep-18 10:48 34.972521 -119.774602 295 4183ft 101kts
24-Sep-18 10:49 34.985450 -119.806453 299 4498ft 108kts
24-Sep-18 10:50 34.999666 -119.836811 299 4499ft 102kts
24-Sep-18 10:51 35.013725 -119.866832 299 4499ft 102kts
24-Sep-18 10:52 35.027733 -119.896739 299 4499ft 102kts
24-Sep-18 10:53 35.041550 -119.927041 297 4499ft 102kts
24-Sep-18 10:54 35.054764 -119.957663 297 4499ft 102kts
24-Sep-18 10:55 35.067981 -119.988293 297 4499ft 102kts
24-Sep-18 10:56 35.081202 -120.018940 297 4499ft 102kts
24-Sep-18 10:57 35.094264 -120.049195 297 4499ft 102kts
24-Sep-18 10:58 35.107350 -120.079499 297 4499ft 102kts
24-Sep-18 10:59 35.116456 -120.111730 267 4500ft 102kts
24-Sep-18 11:00 35.114464 -120.146226 265 4499ft 102kts
24-Sep-18 11:01 35.112398 -120.180887 265 4499ft 102kts
24-Sep-18 11:02 35.110342 -120.215466 265 4499ft 102kts
24-Sep-18 11:03 35.108503 -120.249302 275 4295ft 101kts
24-Sep-18 11:04 35.123908 -120.278623 296 3991ft 105kts
24-Sep-18 11:05 35.135370 -120.311613 291 3690ft 105kts
24-Sep-18 11:06 35.145668 -120.344562 290 3389ft 102kts
24-Sep-18 11:07 35.155662 -120.376899 290 3091ft 102kts
24-Sep-18 11:08 35.164754 -120.406512 290 3089ft 87kts
24-Sep-18 11:09 35.172946 -120.433891 290 3090ft 84kts
24-Sep-18 11:10 35.181001 -120.460842 290 3090ft 84kts
24-Sep-18 11:11 35.189165 -120.488120 290 2898ft 82kts
24-Sep-18 11:12 35.196693 -120.513149 290 2356ft 73kts
24-Sep-18 11:13 35.203667 -120.536350 290 1859ft 76kts
24-Sep-18 11:14 35.210906 -120.558854 292 1508ft 59kts
24-Sep-18 11:15 35.218415 -120.579847 290 1428ft 76kts
24-Sep-18 11:16 35.219347 -120.602255 271 1255ft 70kts
24-Sep-18 11:17 35.226765 -120.622894 307 658ft 63kts
24-Sep-18 11:18 35.235412 -120.637674 305 200ft 32kts
24-Sep-18 11:19 35.237491 -120.639923 8 191ft 0kts
24-Sep-18 11:20 35.237482 -120.639333 123 193ft 9kts
24-Sep-18 11:21 35.237867 -120.638531 266 197ft 0kts
24-Sep-18 11:22 35.237867 -120.638531 266 197ft 0kts
24-Sep-18 11:23 35.237867 -120.638531 266 197ft 0kts

Navigation Log

Ident Type
1. L88 Airport
2. KSBP Airport